createdAt,value
2019-01-15T00:00:01.766Z,48.19
2019-01-15T00:01:03.914Z,48.13
2019-01-15T00:02:06.097Z,48.19
2019-01-15T00:03:08.122Z,48.15
2019-01-15T00:04:10.119Z,48.13
2019-01-15T00:05:12.114Z,48.16
2019-01-15T00:06:14.074Z,48.16
2019-01-15T00:07:16.001Z,48.21
2019-01-15T00:08:18.453Z,48.25
2019-01-15T00:09:20.686Z,48.30
2019-01-15T00:10:22.642Z,48.33
2019-01-15T00:11:24.626Z,48.16
2019-01-15T00:12:26.646Z,48.19
2019-01-15T00:13:28.598Z,48.21
2019-01-15T00:14:30.650Z,48.26
2019-01-15T00:15:33.322Z,48.24
2019-01-15T00:16:35.853Z,48.23
2019-01-15T00:17:39.219Z,48.27
2019-01-15T00:18:41.682Z,48.28
2019-01-15T00:19:44.750Z,48.28
2019-01-15T00:20:47.395Z,48.32
2019-01-15T00:21:50.201Z,48.30
2019-01-15T00:22:52.860Z,48.27
2019-01-15T00:24:00.970Z,48.29
2019-01-15T00:25:04.456Z,48.33
2019-01-15T00:26:07.607Z,48.33
2019-01-15T00:27:10.833Z,48.39
2019-01-15T00:28:16.217Z,48.38
2019-01-15T00:29:18.632Z,48.43
2019-01-15T00:30:21.068Z,48.38
2019-01-15T00:31:23.232Z,48.40
2019-01-15T00:32:25.678Z,48.35
2019-01-15T00:33:28.218Z,48.34
2019-01-15T00:34:30.634Z,48.38
2019-01-15T00:35:32.986Z,48.38
2019-01-15T00:36:35.136Z,48.41
2019-01-15T00:37:37.082Z,48.35
2019-01-15T00:38:39.034Z,48.39
2019-01-15T00:39:41.050Z,48.41
2019-01-15T00:40:43.026Z,48.40
2019-01-15T00:41:44.956Z,48.41
2019-01-15T00:42:46.920Z,48.40
2019-01-15T00:43:48.976Z,48.41
2019-01-15T00:44:50.907Z,48.47
2019-01-15T00:45:52.912Z,48.41
2019-01-15T00:46:55.508Z,48.44
2019-01-15T00:47:57.461Z,48.48
2019-01-15T00:48:59.432Z,48.40
2019-01-15T00:50:01.472Z,48.38
2019-01-15T00:51:03.530Z,48.47
2019-01-15T00:52:05.478Z,48.47
2019-01-15T00:53:07.435Z,48.53
2019-01-15T00:54:09.392Z,48.50
2019-01-15T00:55:11.434Z,48.53
2019-01-15T00:56:13.424Z,48.58
2019-01-15T00:57:15.382Z,48.55
2019-01-15T00:58:17.330Z,48.47
2019-01-15T00:59:19.353Z,48.45
2019-01-15T01:00:21.386Z,48.49
2019-01-15T01:01:25.913Z,48.57
2019-01-15T01:02:27.872Z,48.48
2019-01-15T01:03:29.876Z,48.55
2019-01-15T01:04:31.814Z,48.50
2019-01-15T01:05:33.781Z,48.56
2019-01-15T01:06:35.767Z,48.60
2019-01-15T01:07:37.732Z,48.65
2019-01-15T01:08:39.686Z,48.62
2019-01-15T01:09:41.632Z,48.60
2019-01-15T01:10:43.723Z,48.67
2019-01-15T01:11:45.691Z,48.62
2019-01-15T01:12:47.667Z,48.71
2019-01-15T01:13:50.459Z,48.61
2019-01-15T01:14:52.513Z,48.67
2019-01-15T01:15:54.453Z,48.68
2019-01-15T01:16:56.431Z,48.71
2019-01-15T01:17:58.377Z,48.56
2019-01-15T01:19:00.360Z,48.64
2019-01-15T01:20:02.316Z,48.78
2019-01-15T01:21:04.258Z,48.77
2019-01-15T01:22:06.318Z,48.75
2019-01-15T01:23:08.287Z,48.74
2019-01-15T01:24:10.301Z,48.76
2019-01-15T01:25:12.228Z,48.78
2019-01-15T01:26:14.181Z,48.76
2019-01-15T01:27:16.235Z,48.82
2019-01-15T01:28:18.196Z,48.77
2019-01-15T01:29:20.208Z,48.68
2019-01-15T01:30:22.141Z,48.67
2019-01-15T01:31:24.111Z,48.74
2019-01-15T01:32:26.157Z,48.78
2019-01-15T01:33:30.268Z,48.78
2019-01-15T01:34:32.211Z,48.77
2019-01-15T01:35:34.148Z,48.78
2019-01-15T01:36:36.085Z,48.89
2019-01-15T01:37:38.084Z,48.88
2019-01-15T01:38:40.085Z,48.86
2019-01-15T01:39:42.549Z,48.93
2019-01-15T01:40:44.494Z,48.93
2019-01-15T01:41:46.431Z,48.93
2019-01-15T01:42:48.381Z,48.93
2019-01-15T01:43:50.325Z,48.96
2019-01-15T01:44:52.277Z,48.97
2019-01-15T01:45:54.239Z,48.97
2019-01-15T01:46:56.182Z,49.02
2019-01-15T01:47:58.145Z,49.00
2019-01-15T01:49:00.102Z,48.99
2019-01-15T01:50:04.381Z,49.01
2019-01-15T01:51:06.393Z,48.98
2019-01-15T01:52:08.342Z,49.00
2019-01-15T01:53:10.307Z,49.00
2019-01-15T01:54:12.255Z,48.98
2019-01-15T01:55:14.226Z,49.01
2019-01-15T01:56:16.286Z,49.02
2019-01-15T01:57:20.556Z,49.04
2019-01-15T01:58:22.523Z,49.03
2019-01-15T01:59:24.475Z,49.06
2019-01-15T02:00:26.419Z,49.05
2019-01-15T02:01:28.367Z,49.09
2019-01-15T02:02:30.308Z,49.04
2019-01-15T02:03:32.281Z,49.06
2019-01-15T02:04:34.231Z,48.98
2019-01-15T02:05:36.195Z,48.99
2019-01-15T02:06:42.363Z,48.97
2019-01-15T02:07:41.821Z,49.05
2019-01-15T02:08:43.885Z,49.06
2019-01-15T02:09:45.845Z,49.03
2019-01-15T02:10:47.803Z,49.04
2019-01-15T02:11:49.751Z,49.04
2019-01-15T02:12:51.701Z,49.10
2019-01-15T02:13:53.675Z,49.10
2019-01-15T02:14:56.835Z,49.13
2019-01-15T02:15:58.845Z,49.11
2019-01-15T02:17:00.795Z,49.11
2019-01-15T02:18:04.729Z,49.12
2019-01-15T02:19:06.727Z,49.15
2019-01-15T02:20:08.673Z,49.14
2019-01-15T02:21:10.701Z,49.15
2019-01-15T02:22:12.655Z,49.16
2019-01-15T02:23:14.590Z,49.16
2019-01-15T02:24:16.851Z,49.17
2019-01-15T02:25:18.807Z,49.21
2019-01-15T02:26:20.759Z,49.21
2019-01-15T02:27:23.087Z,49.21
2019-01-15T02:28:25.025Z,49.19
2019-01-15T02:29:27.017Z,49.19
2019-01-15T02:30:29.008Z,49.20
2019-01-15T02:31:31.038Z,49.21
2019-01-15T02:32:32.991Z,49.22
2019-01-15T02:33:35.021Z,49.22
2019-01-15T02:34:36.973Z,49.22
2019-01-15T02:35:38.942Z,49.25
2019-01-15T02:36:40.883Z,49.24
2019-01-15T02:37:42.825Z,49.25
2019-01-15T02:38:44.754Z,49.26
2019-01-15T02:39:46.753Z,49.24
2019-01-15T02:40:48.705Z,49.22
2019-01-15T02:41:50.662Z,49.17
2019-01-15T02:42:52.615Z,49.23
2019-01-15T02:43:55.628Z,49.25
2019-01-15T02:44:57.665Z,49.25
2019-01-15T02:45:59.620Z,49.25
2019-01-15T02:47:01.633Z,49.27
2019-01-15T02:48:03.855Z,49.27
2019-01-15T02:49:05.805Z,49.24
2019-01-15T02:50:07.849Z,49.26
2019-01-15T02:51:09.869Z,49.23
2019-01-15T02:52:11.892Z,49.13
2019-01-15T02:53:13.831Z,49.15
2019-01-15T02:54:15.778Z,49.22
2019-01-15T02:55:17.750Z,49.15
2019-01-15T02:56:21.543Z,49.16
2019-01-15T02:57:23.506Z,49.23
2019-01-15T02:58:25.723Z,49.20
2019-01-15T02:59:27.676Z,49.18
2019-01-15T03:00:29.683Z,49.18
2019-01-15T03:01:31.685Z,49.21
2019-01-15T03:02:35.989Z,49.20
2019-01-15T03:03:37.942Z,49.20
2019-01-15T03:04:40.203Z,49.24
2019-01-15T03:05:42.156Z,49.22
2019-01-15T03:06:44.098Z,49.24
2019-01-15T03:07:46.041Z,49.25
2019-01-15T03:08:48.003Z,49.26
2019-01-15T03:09:49.983Z,49.25
2019-01-15T03:10:51.993Z,49.30
2019-01-15T03:11:56.424Z,49.34
2019-01-15T03:12:58.459Z,49.29
2019-01-15T03:14:00.495Z,49.28
2019-01-15T03:15:02.452Z,49.26
2019-01-15T03:16:04.427Z,49.29
2019-01-15T03:17:09.786Z,49.27
2019-01-15T03:18:11.798Z,49.32
2019-01-15T03:19:13.732Z,49.31
2019-01-15T03:20:15.695Z,49.35
2019-01-15T03:21:17.664Z,49.29
2019-01-15T03:22:19.638Z,49.33
2019-01-15T03:23:21.570Z,49.31
2019-01-15T03:24:23.516Z,49.37
2019-01-15T03:25:25.482Z,49.36
2019-01-15T03:26:27.450Z,49.34
2019-01-15T03:27:29.409Z,49.30
2019-01-15T03:28:31.352Z,49.34
2019-01-15T03:29:33.313Z,49.36
2019-01-15T03:30:35.307Z,49.37
2019-01-15T03:31:37.298Z,49.37
2019-01-15T03:32:39.263Z,49.37
2019-01-15T03:33:41.234Z,49.39
2019-01-15T03:34:43.184Z,49.39
2019-01-15T03:35:45.258Z,49.39
2019-01-15T03:36:47.219Z,49.40
2019-01-15T03:37:49.177Z,49.40
2019-01-15T03:38:51.124Z,49.37
2019-01-15T03:39:53.081Z,49.43
2019-01-15T03:40:55.095Z,49.42
2019-01-15T03:41:57.079Z,49.42
2019-01-15T03:43:03.962Z,49.42
2019-01-15T03:44:05.830Z,49.42
2019-01-15T03:45:07.868Z,49.41
2019-01-15T03:46:09.876Z,49.42
2019-01-15T03:47:11.956Z,49.42
2019-01-15T03:48:13.894Z,49.45
2019-01-15T03:49:15.831Z,49.47
2019-01-15T03:50:17.850Z,49.48
2019-01-15T03:51:19.798Z,49.48
2019-01-15T03:52:21.788Z,49.50
2019-01-15T03:53:23.800Z,49.50
2019-01-15T03:54:25.749Z,49.52
2019-01-15T03:55:27.683Z,49.52
2019-01-15T03:56:29.632Z,49.54
2019-01-15T03:57:31.654Z,49.53
2019-01-15T03:58:33.609Z,49.54
2019-01-15T03:59:35.661Z,49.55
2019-01-15T04:00:37.631Z,49.55
2019-01-15T04:01:39.600Z,49.54
2019-01-15T04:02:41.728Z,49.57
2019-01-15T04:03:43.740Z,49.57
2019-01-15T04:04:46.144Z,49.54
2019-01-15T04:05:48.134Z,49.56
2019-01-15T04:06:50.112Z,49.58
2019-01-15T04:07:56.334Z,49.57
2019-01-15T04:08:58.289Z,49.58
2019-01-15T04:10:00.794Z,49.59
2019-01-15T04:11:02.751Z,49.57
2019-01-15T04:12:04.723Z,49.59
2019-01-15T04:13:11.242Z,49.61
2019-01-15T04:14:10.378Z,49.63
2019-01-15T04:15:12.392Z,49.63
2019-01-15T04:16:14.355Z,49.65
2019-01-15T04:17:16.384Z,49.64
2019-01-15T04:18:18.342Z,49.64
2019-01-15T04:19:20.288Z,49.65
2019-01-15T04:20:22.228Z,49.69
2019-01-15T04:21:24.257Z,49.69
2019-01-15T04:22:26.193Z,49.68
2019-01-15T04:23:28.168Z,49.68
2019-01-15T04:24:30.118Z,49.68
2019-01-15T04:25:32.128Z,49.69
2019-01-15T04:26:34.336Z,49.70
2019-01-15T04:27:36.302Z,49.71
2019-01-15T04:28:38.255Z,49.71
2019-01-15T04:29:40.204Z,49.70
2019-01-15T04:30:42.154Z,49.72
2019-01-15T04:31:44.159Z,49.72
2019-01-15T04:32:46.112Z,49.71
2019-01-15T04:33:48.043Z,49.73
2019-01-15T04:34:50.039Z,49.73
2019-01-15T04:35:52.039Z,49.74
2019-01-15T04:36:54.081Z,49.75
2019-01-15T04:37:56.100Z,49.76
2019-01-15T04:38:58.081Z,49.75
2019-01-15T04:40:00.208Z,49.75
2019-01-15T04:41:02.236Z,49.75
2019-01-15T04:42:04.218Z,49.75
2019-01-15T04:43:06.165Z,49.72
2019-01-15T04:44:08.182Z,49.75
2019-01-15T04:45:10.132Z,49.75
2019-01-15T04:46:12.134Z,49.71
2019-01-15T04:47:15.550Z,49.72
2019-01-15T04:48:17.533Z,49.74
2019-01-15T04:49:19.493Z,49.79
2019-01-15T04:50:21.512Z,49.77
2019-01-15T04:51:23.457Z,49.81
2019-01-15T04:52:25.704Z,49.76
2019-01-15T04:53:27.709Z,49.74
2019-01-15T04:54:29.648Z,49.78
2019-01-15T04:55:31.595Z,49.73
2019-01-15T04:56:34.195Z,49.74
2019-01-15T04:57:36.245Z,49.77
2019-01-15T04:58:41.402Z,49.77
2019-01-15T04:59:43.715Z,49.77
2019-01-15T05:00:47.325Z,49.79
2019-01-15T05:01:49.293Z,49.81
2019-01-15T05:02:51.544Z,49.78
2019-01-15T05:03:53.915Z,49.78
2019-01-15T05:04:55.967Z,49.80
2019-01-15T05:05:57.903Z,49.81
2019-01-15T05:07:00.909Z,49.83
2019-01-15T05:08:02.920Z,49.82
2019-01-15T05:09:04.904Z,49.78
2019-01-15T05:10:06.858Z,49.80
2019-01-15T05:11:08.919Z,49.81
2019-01-15T05:12:10.871Z,49.80
2019-01-15T05:13:12.917Z,49.79
2019-01-15T05:14:14.859Z,49.83
2019-01-15T05:15:16.810Z,49.82
2019-01-15T05:16:18.763Z,49.83
2019-01-15T05:17:20.733Z,49.84
2019-01-15T05:18:22.779Z,49.86
2019-01-15T05:19:26.087Z,49.86
2019-01-15T05:20:28.035Z,49.85
2019-01-15T05:21:30.065Z,49.88
2019-01-15T05:22:32.079Z,49.90
2019-01-15T05:23:34.047Z,49.90
2019-01-15T05:24:35.987Z,49.91
2019-01-15T05:25:39.105Z,49.91
2019-01-15T05:26:41.060Z,49.90
2019-01-15T05:27:43.018Z,49.90
2019-01-15T05:28:45.065Z,49.89
2019-01-15T05:29:48.043Z,49.85
2019-01-15T05:30:50.061Z,49.88
2019-01-15T05:31:52.086Z,49.83
2019-01-15T05:32:54.117Z,49.88
2019-01-15T05:33:56.169Z,49.91
2019-01-15T05:34:58.116Z,49.89
2019-01-15T05:36:00.059Z,49.89
2019-01-15T05:37:02.093Z,49.90
2019-01-15T05:38:06.160Z,49.90
2019-01-15T05:39:08.134Z,49.88
2019-01-15T05:40:10.078Z,49.90
2019-01-15T05:41:12.032Z,49.90
2019-01-15T05:42:13.976Z,49.88
2019-01-15T05:43:15.998Z,49.86
2019-01-15T05:44:18.056Z,49.84
2019-01-15T05:45:28.323Z,49.85
2019-01-15T05:46:30.345Z,49.83
2019-01-15T05:47:32.459Z,49.86
2019-01-15T05:48:36.423Z,49.86
2019-01-15T05:49:38.551Z,49.88
2019-01-15T05:50:59.614Z,49.90
2019-01-15T05:52:01.589Z,49.88
2019-01-15T05:53:03.556Z,49.89
2019-01-15T05:54:05.575Z,49.87
2019-01-15T05:55:07.520Z,49.84
2019-01-15T05:56:09.693Z,49.83
2019-01-15T05:57:13.844Z,49.85
2019-01-15T05:58:15.865Z,49.83
2019-01-15T05:59:17.810Z,49.78
2019-01-15T06:00:19.783Z,49.80
2019-01-15T06:01:21.748Z,49.79
2019-01-15T06:02:23.770Z,49.82
2019-01-15T06:03:25.728Z,49.82
2019-01-15T06:04:27.751Z,49.83
2019-01-15T06:05:30.284Z,49.82
2019-01-15T06:06:32.222Z,49.82
2019-01-15T06:07:34.196Z,49.83
2019-01-15T06:08:36.164Z,49.81
2019-01-15T06:09:38.194Z,49.82
2019-01-15T06:10:40.249Z,49.81
2019-01-15T06:11:42.186Z,49.81
2019-01-15T06:12:44.136Z,49.81
2019-01-15T06:13:46.086Z,49.84
2019-01-15T06:14:48.654Z,49.83
2019-01-15T06:15:50.636Z,49.85
2019-01-15T06:16:52.582Z,49.86
2019-01-15T06:17:54.530Z,49.85
2019-01-15T06:18:56.572Z,49.87
2019-01-15T06:20:00.474Z,49.89
2019-01-15T06:21:02.225Z,49.87
2019-01-15T06:22:04.169Z,49.92
2019-01-15T06:23:06.111Z,49.92
2019-01-15T06:24:08.052Z,49.91
2019-01-15T06:25:10.000Z,49.94
2019-01-15T06:26:11.966Z,49.97
2019-01-15T06:27:13.983Z,50.00
2019-01-15T06:28:15.936Z,49.97
2019-01-15T06:29:18.191Z,50.04
2019-01-15T06:30:20.130Z,50.00
2019-01-15T06:31:22.165Z,50.06
2019-01-15T06:32:24.116Z,50.05
2019-01-15T06:33:26.128Z,50.04
2019-01-15T06:34:28.066Z,50.08
2019-01-15T06:35:30.019Z,50.07
2019-01-15T06:36:32.003Z,50.05
2019-01-15T06:37:33.942Z,50.09
2019-01-15T06:38:39.135Z,50.11
2019-01-15T06:39:41.175Z,50.10
2019-01-15T06:40:43.185Z,50.13
2019-01-15T06:41:45.275Z,50.13
2019-01-15T06:42:47.238Z,50.16
2019-01-15T06:43:50.132Z,50.14
2019-01-15T06:44:52.291Z,50.14
2019-01-15T06:45:54.234Z,50.17
2019-01-15T06:46:56.391Z,50.17
2019-01-15T06:47:58.330Z,50.17
2019-01-15T06:49:00.285Z,50.18
2019-01-15T06:50:02.223Z,50.23
2019-01-15T06:51:04.199Z,50.21
2019-01-15T06:52:06.175Z,50.29
2019-01-15T06:53:08.112Z,50.24
2019-01-15T06:54:10.093Z,50.28
2019-01-15T06:55:12.071Z,50.27
2019-01-15T06:56:14.046Z,50.31
2019-01-15T06:57:19.438Z,50.32
2019-01-15T06:58:21.396Z,50.33
2019-01-15T06:59:23.345Z,50.36
2019-01-15T07:00:26.574Z,50.41
2019-01-15T07:01:28.528Z,50.41
2019-01-15T07:02:33.266Z,50.39
2019-01-15T07:03:35.208Z,50.43
2019-01-15T07:04:43.653Z,50.46
2019-01-15T07:05:43.237Z,50.46
2019-01-15T07:06:44.483Z,50.46
2019-01-15T07:07:46.441Z,50.44
2019-01-15T07:08:48.395Z,50.39
2019-01-15T07:09:50.444Z,50.49
2019-01-15T07:10:52.392Z,50.49
2019-01-15T07:11:54.320Z,50.49
2019-01-15T07:12:56.309Z,50.48
2019-01-15T07:13:58.260Z,50.54
2019-01-15T07:15:00.263Z,50.51
2019-01-15T07:16:02.514Z,50.52
2019-01-15T07:17:04.462Z,50.55
2019-01-15T07:18:06.454Z,50.56
2019-01-15T07:19:08.485Z,50.58
2019-01-15T07:20:10.425Z,50.60
2019-01-15T07:21:12.449Z,50.53
2019-01-15T07:22:14.428Z,50.59
2019-01-15T07:23:16.498Z,50.61
2019-01-15T07:24:18.522Z,50.60
2019-01-15T07:25:20.492Z,50.59
2019-01-15T07:26:22.435Z,50.61
2019-01-15T07:27:26.033Z,50.59
2019-01-15T07:28:27.985Z,50.60
2019-01-15T07:29:34.361Z,50.60
2019-01-15T07:30:36.357Z,50.61
2019-01-15T07:31:38.314Z,50.65
2019-01-15T07:32:40.334Z,50.64
2019-01-15T07:33:43.770Z,50.59
2019-01-15T07:34:45.733Z,50.67
2019-01-15T07:35:50.900Z,50.66
2019-01-15T07:36:52.871Z,50.63
2019-01-15T07:37:54.800Z,50.63
2019-01-15T07:38:56.757Z,50.59
2019-01-15T07:39:58.711Z,50.59
2019-01-15T07:41:00.667Z,50.57
2019-01-15T07:42:02.620Z,50.57
2019-01-15T07:43:04.553Z,50.52
2019-01-15T07:44:06.534Z,50.51
2019-01-15T07:45:08.483Z,50.44
2019-01-15T07:46:10.427Z,50.35
2019-01-15T07:47:12.659Z,50.17
2019-01-15T07:48:14.745Z,50.21
2019-01-15T07:49:16.755Z,50.16
2019-01-15T07:50:18.723Z,50.12
2019-01-15T07:51:20.654Z,50.11
2019-01-15T07:52:22.593Z,49.99
2019-01-15T07:53:25.019Z,49.93
2019-01-15T07:54:27.519Z,49.94
2019-01-15T07:55:29.483Z,49.96
2019-01-15T07:56:31.505Z,49.94
2019-01-15T07:57:33.461Z,49.98
2019-01-15T07:58:38.700Z,50.05
2019-01-15T07:59:43.791Z,50.08
2019-01-15T08:00:45.782Z,50.08
2019-01-15T08:01:47.799Z,50.09
2019-01-15T08:02:49.757Z,50.09
2019-01-15T08:03:51.708Z,50.08
2019-01-15T08:04:53.766Z,50.14
2019-01-15T08:05:55.783Z,50.11
2019-01-15T08:06:57.801Z,50.14
2019-01-15T08:07:59.819Z,50.11
2019-01-15T08:09:01.781Z,50.14
2019-01-15T08:10:03.835Z,50.15
2019-01-15T08:11:05.786Z,50.21
2019-01-15T08:12:07.773Z,50.22
2019-01-15T08:13:09.761Z,50.25
2019-01-15T08:14:12.389Z,50.26
2019-01-15T08:15:14.528Z,50.28
2019-01-15T08:16:16.491Z,50.30
2019-01-15T08:17:18.459Z,50.33
2019-01-15T08:18:20.399Z,50.34
2019-01-15T08:19:22.609Z,50.34
2019-01-15T08:20:24.626Z,50.40
2019-01-15T08:21:26.567Z,50.46
2019-01-15T08:22:28.521Z,50.42
2019-01-15T08:23:30.539Z,50.49
2019-01-15T08:24:32.497Z,50.52
2019-01-15T08:25:34.479Z,50.55
2019-01-15T08:26:36.495Z,50.58
2019-01-15T08:27:39.105Z,50.58
2019-01-15T08:28:41.295Z,50.62
2019-01-15T08:29:43.259Z,50.60
2019-01-15T08:30:45.368Z,50.68
2019-01-15T08:31:49.745Z,50.72
2019-01-15T08:32:51.704Z,50.73
2019-01-15T08:33:53.641Z,50.73
2019-01-15T08:34:55.597Z,50.75
2019-01-15T08:35:57.641Z,50.76
2019-01-15T08:36:59.579Z,50.81
2019-01-15T08:38:01.518Z,50.84
2019-01-15T08:39:05.608Z,50.84
2019-01-15T08:40:07.348Z,50.87
2019-01-15T08:41:09.330Z,50.86
2019-01-15T08:42:11.349Z,50.86
2019-01-15T08:43:13.368Z,50.89
2019-01-15T08:44:19.161Z,50.93
2019-01-15T08:45:19.051Z,50.91
2019-01-15T08:46:21.028Z,50.90
2019-01-15T08:47:23.147Z,50.93
2019-01-15T08:48:27.390Z,50.92
2019-01-15T08:49:29.332Z,50.92
2019-01-15T08:50:31.271Z,50.94
2019-01-15T08:51:33.330Z,50.93
2019-01-15T08:52:35.256Z,50.95
2019-01-15T08:53:37.495Z,50.94
2019-01-15T08:54:39.462Z,50.97
2019-01-15T08:55:44.918Z,51.01
2019-01-15T08:56:46.973Z,51.03
2019-01-15T08:57:48.932Z,51.00
2019-01-15T08:58:50.888Z,50.92
2019-01-15T08:59:52.844Z,50.91
2019-01-15T09:00:54.780Z,50.92
2019-01-15T09:02:00.152Z,50.90
2019-01-15T09:03:02.244Z,50.72
2019-01-15T09:04:04.190Z,50.64
2019-01-15T09:05:06.193Z,50.62
2019-01-15T09:06:08.131Z,50.50
2019-01-15T09:07:10.110Z,50.49
2019-01-15T09:08:12.068Z,50.48
2019-01-15T09:09:14.087Z,50.50
2019-01-15T09:10:16.149Z,50.38
2019-01-15T09:11:18.167Z,50.35
2019-01-15T09:12:20.160Z,50.17
2019-01-15T09:13:22.144Z,50.04
2019-01-15T09:14:27.041Z,49.99
2019-01-15T09:15:27.780Z,49.96
2019-01-15T09:16:29.799Z,49.97
2019-01-15T09:17:31.798Z,49.94
2019-01-15T09:18:33.750Z,50.03
2019-01-15T09:19:35.777Z,50.04
2019-01-15T09:20:37.826Z,50.09
2019-01-15T09:21:39.856Z,50.18
2019-01-15T09:22:41.949Z,50.20
2019-01-15T09:23:44.115Z,50.25
2019-01-15T09:24:46.141Z,50.24
2019-01-15T09:25:48.238Z,50.26
2019-01-15T09:26:50.242Z,50.27
2019-01-15T09:27:52.219Z,50.27
2019-01-15T09:28:54.267Z,50.28
2019-01-15T09:29:56.201Z,50.33
2019-01-15T09:30:58.152Z,50.33
2019-01-15T09:32:03.408Z,50.34
2019-01-15T09:33:05.372Z,50.40
2019-01-15T09:34:07.435Z,50.46
2019-01-15T09:35:09.515Z,50.50
2019-01-15T09:36:11.496Z,50.54
2019-01-15T09:37:14.018Z,50.58
2019-01-15T09:38:16.069Z,50.61
2019-01-15T09:39:17.997Z,50.63
2019-01-15T09:40:19.938Z,50.65
2019-01-15T09:41:21.879Z,50.71
2019-01-15T09:42:24.095Z,50.70
2019-01-15T09:43:26.126Z,50.78
2019-01-15T09:44:33.960Z,50.79
2019-01-15T09:45:31.765Z,50.84
2019-01-15T09:46:33.709Z,50.84
2019-01-15T09:47:37.295Z,50.88
2019-01-15T09:48:39.487Z,50.92
2019-01-15T09:49:41.439Z,50.95
2019-01-15T09:50:43.389Z,51.00
2019-01-15T09:51:45.343Z,51.04
2019-01-15T09:52:47.375Z,51.08
2019-01-15T09:53:49.345Z,51.06
2019-01-15T09:54:51.300Z,51.07
2019-01-15T09:55:53.225Z,51.07
2019-01-15T09:56:55.378Z,51.12
2019-01-15T09:57:57.381Z,51.13
2019-01-15T09:58:59.369Z,51.16
2019-01-15T10:00:01.339Z,51.23
2019-01-15T10:01:03.318Z,51.22
2019-01-15T10:02:05.271Z,51.20
2019-01-15T10:03:07.208Z,51.20
2019-01-15T10:04:09.189Z,51.25
2019-01-15T10:05:11.130Z,51.29
2019-01-15T10:06:13.330Z,51.12
2019-01-15T10:07:15.357Z,51.24
2019-01-15T10:08:17.297Z,51.26
2019-01-15T10:09:19.369Z,51.25
2019-01-15T10:10:21.391Z,51.29
2019-01-15T10:11:23.340Z,51.24
2019-01-15T10:12:25.281Z,51.25
2019-01-15T10:13:27.222Z,51.23
2019-01-15T10:14:29.278Z,51.24
2019-01-15T10:15:31.297Z,51.28
2019-01-15T10:16:33.269Z,51.35
2019-01-15T10:17:35.294Z,51.28
2019-01-15T10:18:37.226Z,51.23
2019-01-15T10:19:39.190Z,51.32
2019-01-15T10:20:41.128Z,51.24
2019-01-15T10:21:43.452Z,51.30
2019-01-15T10:22:45.386Z,51.23
2019-01-15T10:23:47.331Z,51.05
2019-01-15T10:24:49.697Z,50.89
2019-01-15T10:25:51.921Z,50.77
2019-01-15T10:26:55.349Z,50.82
2019-01-15T10:27:58.393Z,50.84
2019-01-15T10:29:00.363Z,50.77
2019-01-15T10:30:03.391Z,50.65
2019-01-15T10:31:05.419Z,50.60
2019-01-15T10:32:09.790Z,50.51
2019-01-15T10:33:11.733Z,50.38
2019-01-15T10:34:13.676Z,50.33
2019-01-15T10:35:15.634Z,50.33
2019-01-15T10:36:17.565Z,50.27
2019-01-15T10:37:19.522Z,50.28
2019-01-15T10:38:21.449Z,50.27
2019-01-15T10:39:23.494Z,50.27
2019-01-15T10:40:25.496Z,50.30
2019-01-15T10:41:27.438Z,50.35
2019-01-15T10:42:29.631Z,50.36
2019-01-15T10:43:31.555Z,50.43
2019-01-15T10:44:33.494Z,50.42
2019-01-15T10:45:35.471Z,50.58
2019-01-15T10:46:37.419Z,50.52
2019-01-15T10:47:39.381Z,50.61
2019-01-15T10:48:41.448Z,50.65
2019-01-15T10:49:43.433Z,50.73
2019-01-15T10:50:45.410Z,50.75
2019-01-15T10:51:47.360Z,50.77
2019-01-15T10:52:49.319Z,50.78
2019-01-15T10:53:51.336Z,50.81
2019-01-15T10:54:53.737Z,50.83
2019-01-15T10:55:55.747Z,50.86
2019-01-15T10:56:57.690Z,50.88
2019-01-15T10:57:59.628Z,50.90
2019-01-15T10:59:01.651Z,50.94
2019-01-15T11:00:03.585Z,50.97
2019-01-15T11:01:05.559Z,51.02
2019-01-15T11:02:07.578Z,51.05
2019-01-15T11:03:09.606Z,51.08
2019-01-15T11:04:11.605Z,51.09
2019-01-15T11:05:13.541Z,51.14
2019-01-15T11:06:15.521Z,51.15
2019-01-15T11:07:17.451Z,51.19
2019-01-15T11:08:19.395Z,51.17
2019-01-15T11:09:21.346Z,51.23
2019-01-15T11:10:23.386Z,51.18
2019-01-15T11:11:25.446Z,51.25
2019-01-15T11:12:29.735Z,51.29
2019-01-15T11:13:31.675Z,51.30
2019-01-15T11:14:33.786Z,51.32
2019-01-15T11:15:39.472Z,51.35
2019-01-15T11:16:39.780Z,51.37
2019-01-15T11:17:41.802Z,51.37
2019-01-15T11:18:43.739Z,51.41
2019-01-15T11:19:45.691Z,51.42
2019-01-15T11:20:47.641Z,51.44
2019-01-15T11:21:49.755Z,51.46
2019-01-15T11:22:51.697Z,51.44
2019-01-15T11:23:53.637Z,51.48
2019-01-15T11:24:55.593Z,51.47
2019-01-15T11:25:59.256Z,51.47
2019-01-15T11:27:01.294Z,51.56
2019-01-15T11:28:03.226Z,51.57
2019-01-15T11:29:05.176Z,51.57
2019-01-15T11:30:07.202Z,51.46
2019-01-15T11:31:09.163Z,51.60
2019-01-15T11:32:11.141Z,51.62
2019-01-15T11:33:13.088Z,51.61
2019-01-15T11:34:15.030Z,51.61
2019-01-15T11:35:16.974Z,51.55
2019-01-15T11:36:20.502Z,51.61
2019-01-15T11:37:22.452Z,51.66
2019-01-15T11:38:24.400Z,51.66
2019-01-15T11:39:26.335Z,51.65
2019-01-15T11:40:28.322Z,51.64
2019-01-15T11:41:30.340Z,51.64
2019-01-15T11:42:32.458Z,51.57
2019-01-15T11:43:34.400Z,51.65
2019-01-15T11:44:36.819Z,51.68
2019-01-15T11:45:38.758Z,51.65
2019-01-15T11:46:40.694Z,51.67
2019-01-15T11:47:42.668Z,51.51
2019-01-15T11:48:44.622Z,51.60
2019-01-15T11:49:46.582Z,51.59
2019-01-15T11:50:48.576Z,51.80
2019-01-15T11:51:50.579Z,51.84
2019-01-15T11:52:52.577Z,51.70
2019-01-15T11:53:54.570Z,51.73
2019-01-15T11:54:56.514Z,51.64
2019-01-15T11:55:58.470Z,51.44
2019-01-15T11:57:00.422Z,51.42
2019-01-15T11:58:02.403Z,51.31
2019-01-15T11:59:04.351Z,51.25
2019-01-15T12:00:06.474Z,51.22
2019-01-15T12:01:15.891Z,51.19
2019-01-15T12:02:27.788Z,51.14
2019-01-15T12:03:55.203Z,51.01
2019-01-15T12:05:25.456Z,50.95
2019-01-15T12:06:45.605Z,50.88
2019-01-15T12:08:18.866Z,50.86
2019-01-15T12:09:39.036Z,50.79
2019-01-15T12:11:08.909Z,50.78
2019-01-15T12:12:28.730Z,50.77
2019-01-15T12:13:59.127Z,50.75
2019-01-15T12:15:18.553Z,50.75
2019-01-15T12:16:38.525Z,50.79
2019-01-15T12:18:00.385Z,50.77
2019-01-15T12:19:27.528Z,50.83
2019-01-15T12:20:51.661Z,50.99
2019-01-15T12:22:10.566Z,51.03
2019-01-15T12:23:25.272Z,51.13
2019-01-15T12:24:49.530Z,51.18
2019-01-15T12:26:13.338Z,51.23
2019-01-15T12:27:25.326Z,51.28
2019-01-15T12:28:43.449Z,51.29
2019-01-15T12:30:03.214Z,51.33
2019-01-15T12:31:23.962Z,51.37
2019-01-15T12:32:43.874Z,51.42
2019-01-15T12:33:57.298Z,51.42
2019-01-15T12:35:33.689Z,51.46
2019-01-15T12:37:00.343Z,51.50
2019-01-15T12:38:36.531Z,51.51
2019-01-15T12:40:09.348Z,51.55
2019-01-15T12:41:42.192Z,51.58
2019-01-15T12:43:09.020Z,51.62
2019-01-15T12:44:28.969Z,51.64
2019-01-15T12:45:43.617Z,51.65
2019-01-15T12:47:10.792Z,51.70
2019-01-15T12:48:41.042Z,51.72
2019-01-15T12:50:09.437Z,51.78
2019-01-15T12:51:22.079Z,51.79
2019-01-15T12:52:48.825Z,51.79
2019-01-15T12:54:09.022Z,51.76
2019-01-15T12:55:26.429Z,51.81
2019-01-15T12:56:46.653Z,51.80
2019-01-15T12:58:22.757Z,51.84
2019-01-15T12:59:58.678Z,51.89
2019-01-15T13:01:25.322Z,51.87
2019-01-15T13:03:02.515Z,51.87
2019-01-15T13:04:22.287Z,51.92
2019-01-15T13:05:46.403Z,51.92
2019-01-15T13:07:04.069Z,51.91
2019-01-15T13:08:34.370Z,51.92
2019-01-15T13:09:46.185Z,51.86
2019-01-15T13:11:02.191Z,51.85
2019-01-15T13:12:32.590Z,51.84
2019-01-15T13:13:52.392Z,51.82
2019-01-15T13:15:12.073Z,51.86
2019-01-15T13:16:32.181Z,51.88
2019-01-15T13:18:00.881Z,51.84
2019-01-15T13:19:22.938Z,51.87
2019-01-15T13:20:43.958Z,51.87
2019-01-15T13:22:13.926Z,51.86
2019-01-15T13:23:33.431Z,51.91
2019-01-15T13:25:05.343Z,51.89
2019-01-15T13:26:23.875Z,51.92
2019-01-15T13:27:47.829Z,51.87
2019-01-15T13:29:17.551Z,51.86
2019-01-15T13:30:36.513Z,51.91
2019-01-15T13:31:57.604Z,51.87
2019-01-15T13:33:17.381Z,51.92
2019-01-15T13:34:37.142Z,51.89
2019-01-15T13:36:00.977Z,51.98
2019-01-15T13:37:20.165Z,51.96
2019-01-15T13:38:50.657Z,51.93
2019-01-15T13:40:14.223Z,51.97
2019-01-15T13:41:35.263Z,51.97
2019-01-15T13:43:02.480Z,51.98
2019-01-15T13:44:18.397Z,52.00
2019-01-15T13:45:41.555Z,52.01
2019-01-15T13:46:53.306Z,51.98
2019-01-15T13:48:13.294Z,51.99